Time;durP1;ratioP1;P1;durP2;ratioP2;P2;SDS_P1;SDS_P2;PMS_P1;PMS_P2;Temp;Humidity;BMP_temperature;BMP_pressure;BME280_temperature;BME280_humidity;BME280_pressure;Samples;Min_cycle;Max_cycle;Signal;HPM_P1;HPM_P2
2022/06/06 00:01:47;;;;;;;2.70;0.95;;;15.10;99.90;;;;;;4224708;28;20039;-65
2022/06/06 00:03:49;;;;;;;1.92;0.60;;;15.10;99.90;;;;;;4229651;28;20027;-63
2022/06/06 00:05:50;;;;;;;1.50;0.70;;;15.00;99.90;;;;;;4225573;28;20027;-65
2022/06/06 00:07:51;;;;;;;1.50;0.70;;;15.00;99.90;;;;;;4229709;28;20072;-67
2022/06/06 00:09:53;;;;;;;1.58;0.98;;;15.00;99.90;;;;;;4225492;28;20044;-67
2022/06/06 00:11:58;;;;;;;3.00;0.88;;;15.00;99.90;;;;;;4223063;28;20024;-65
2022/06/06 00:14:00;;;;;;;1.33;1.20;;;15.00;99.90;;;;;;4223637;28;20088;-64
2022/06/06 00:16:01;;;;;;;1.42;1.20;;;15.00;99.90;;;;;;4228594;27;20430;-64
2022/06/06 00:18:03;;;;;;;1.73;1.60;;;15.00;99.90;;;;;;4229402;28;20052;-63
2022/06/06 00:20:04;;;;;;;2.05;1.60;;;14.90;99.90;;;;;;4227776;28;20043;-64
2022/06/06 00:22:07;;;;;;;1.48;1.23;;;14.90;99.90;;;;;;4221436;28;20732;-62
2022/06/06 00:24:09;;;;;;;3.28;1.80;;;14.90;99.90;;;;;;4230334;28;20132;-63
2022/06/06 00:26:13;;;;;;;1.42;1.33;;;14.80;99.90;;;;;;4227747;28;20039;-63
2022/06/06 00:28:15;;;;;;;4.10;1.58;;;14.80;99.90;;;;;;4224417;28;20035;-63
2022/06/06 00:30:16;;;;;;;8.55;1.80;;;14.80;99.90;;;;;;4224058;28;20051;-63
2022/06/06 00:34:49;;;;;;;4.32;1.80;;;14.60;99.90;;;;;;4231567;27;20031;-65
2022/06/06 00:36:51;;;;;;;3.20;1.63;;;14.60;99.90;;;;;;4238015;28;20051;-63
2022/06/06 00:38:52;;;;;;;2.08;1.52;;;14.50;99.90;;;;;;4239553;28;20031;-60
2022/06/06 00:40:53;;;;;;;1.98;1.70;;;14.60;99.90;;;;;;4234617;28;20116;-62
2022/06/06 00:42:54;;;;;;;2.17;1.73;;;14.60;99.90;;;;;;4223469;28;20028;-61
2022/06/06 00:45:23;;;;;;;2.22;1.63;;;14.60;99.90;;;;;;4224245;28;20092;-63
2022/06/06 00:47:27;;;;;;;2.72;1.70;;;14.60;99.90;;;;;;4223035;28;20076;-64
2022/06/06 00:49:41;;;;;;;1.73;1.58;;;14.60;99.90;;;;;;4223427;28;20043;-63
2022/06/06 00:51:43;;;;;;;3.15;2.10;;;14.60;99.90;;;;;;4220967;28;20053;-64
2022/06/06 00:53:50;;;;;;;9.10;3.17;;;14.60;99.90;;;;;;4225024;27;20425;-64
2022/06/06 00:55:58;;;;;;;4.28;2.17;;;14.60;99.90;;;;;;4235247;27;20019;-65
2022/06/06 00:58:05;;;;;;;7.07;2.50;;;14.60;99.90;;;;;;4231034;27;20039;-65
2022/06/06 01:00:14;;;;;;;5.32;2.40;;;14.60;99.90;;;;;;4224513;27;20127;-63
2022/06/06 01:02:16;;;;;;;3.80;2.35;;;14.50;99.90;;;;;;4235494;27;20088;-62
2022/06/06 01:04:20;;;;;;;2.20;1.65;;;14.40;99.90;;;;;;4240417;27;21260;-63
2022/06/06 01:06:22;;;;;;;4.60;1.98;;;14.40;99.90;;;;;;4241696;27;20047;-63
2022/06/06 01:08:24;;;;;;;5.95;1.98;;;14.40;99.90;;;;;;4233431;27;20085;-64
2022/06/06 01:10:26;;;;;;;3.08;2.20;;;14.40;99.90;;;;;;4233631;27;20445;-64
2022/06/06 01:12:31;;;;;;;2.92;2.25;;;14.30;99.90;;;;;;4242759;27;20015;-67
2022/06/06 01:14:38;;;;;;;2.45;2.20;;;14.30;99.90;;;;;;4240778;27;20039;-68
2022/06/06 01:17:00;;;;;;;3.38;2.40;;;14.20;99.90;;;;;;4241142;27;20023;-65
2022/06/06 01:19:31;;;;;;;4.25;2.40;;;14.20;99.90;;;;;;4224755;27;20069;-67
2022/06/06 01:22:03;;;;;;;6.95;2.65;;;14.10;99.90;;;;;;4226133;27;20355;-67
2022/06/06 01:24:16;;;;;;;2.42;2.15;;;14.20;99.90;;;;;;4214184;27;20084;-66
2022/06/06 01:26:39;;;;;;;3.43;2.40;;;14.10;99.90;;;;;;4208191;28;20035;-65
2022/06/06 01:28:52;;;;;;;7.60;2.37;;;14.10;99.90;;;;;;4212505;27;20101;-63
2022/06/06 01:31:00;;;;;;;2.72;1.65;;;14.10;99.90;;;;;;4238289;27;20093;-65
2022/06/06 01:33:02;;;;;;;3.17;2.30;;;14.10;99.90;;;;;;4239220;27;20126;-66
2022/06/06 01:35:04;;;;;;;3.77;1.57;;;14.00;99.90;;;;;;4231696;27;20165;-67
2022/06/06 01:37:25;;;;;;;6.03;1.63;;;13.90;99.90;;;;;;4235292;27;20092;-63
2022/06/06 01:39:30;;;;;;;3.05;1.60;;;13.90;99.90;;;;;;4227295;27;20031;-65
2022/06/06 01:41:53;;;;;;;2.50;1.73;;;13.80;99.90;;;;;;4227164;27;20044;-65
2022/06/06 01:44:05;;;;;;;1.73;1.50;;;13.70;99.90;;;;;;4238883;27;20035;-65
2022/06/06 01:46:11;;;;;;;3.43;1.97;;;13.70;99.90;;;;;;4223603;27;20658;-68
2022/06/06 01:48:16;;;;;;;3.47;1.80;;;13.60;99.90;;;;;;4225311;27;20115;-67
2022/06/06 01:50:20;;;;;;;4.00;1.80;;;13.60;99.90;;;;;;4226989;27;20468;-67
2022/06/06 01:52:22;;;;;;;5.47;1.90;;;13.60;99.90;;;;;;4228058;27;20019;-67
2022/06/06 01:54:23;;;;;;;4.80;1.97;;;13.60;99.90;;;;;;4240700;27;20607;-66
2022/06/06 01:56:32;;;;;;;2.93;1.73;;;13.60;99.90;;;;;;4236263;27;20548;-64
2022/06/06 01:58:34;;;;;;;3.73;1.70;;;13.60;99.90;;;;;;4226719;27;20453;-64
2022/06/06 02:00:37;;;;;;;7.37;2.60;;;13.60;99.90;;;;;;4224817;27;20492;-65
2022/06/06 02:02:40;;;;;;;5.07;1.87;;;13.60;99.90;;;;;;4225519;27;20124;-67
2022/06/06 02:04:41;;;;;;;2.00;1.80;;;13.60;99.90;;;;;;4234935;27;21467;-66
2022/06/06 02:06:42;;;;;;;4.70;2.30;;;13.60;99.90;;;;;;4233980;27;20027;-67
2022/06/06 02:08:43;;;;;;;1.60;1.40;;;13.60;99.90;;;;;;4227864;27;20050;-63
2022/06/06 02:10:45;;;;;;;3.10;1.50;;;13.60;99.90;;;;;;4241736;27;20027;-67
2022/06/06 02:12:46;;;;;;;5.17;2.90;;;13.60;99.90;;;;;;4241036;27;20035;-67
2022/06/06 02:14:47;;;;;;;2.70;2.50;;;13.50;99.90;;;;;;4232101;27;20048;-67
2022/06/06 02:16:49;;;;;;;6.20;3.30;;;13.50;99.90;;;;;;4225039;28;20047;-65
2022/06/06 02:18:50;;;;;;;3.20;2.60;;;13.40;99.90;;;;;;4224082;28;20465;-67
2022/06/06 02:20:51;;;;;;;4.23;2.60;;;13.40;99.90;;;;;;4228269;27;20171;-67
2022/06/06 02:22:53;;;;;;;6.37;2.50;;;13.40;99.90;;;;;;4240406;27;20039;-66
2022/06/06 02:24:54;;;;;;;4.87;3.07;;;13.40;99.90;;;;;;4237595;27;20027;-65
2022/06/06 02:26:56;;;;;;;6.93;3.10;;;13.30;99.90;;;;;;4224190;28;20040;-65
2022/06/06 02:28:57;;;;;;;3.70;3.13;;;13.30;99.90;;;;;;4226023;27;20031;-67
2022/06/06 02:30:58;;;;;;;4.73;2.50;;;13.30;99.90;;;;;;4223971;28;20035;-65
2022/06/06 02:33:00;;;;;;;5.03;2.60;;;13.30;99.90;;;;;;4225297;28;20027;-68
2022/06/06 02:35:01;;;;;;;3.57;2.23;;;13.30;99.90;;;;;;4223888;28;20077;-68
2022/06/06 02:37:02;;;;;;;3.83;2.50;;;13.20;99.90;;;;;;4224926;28;20101;-66
2022/06/06 02:39:03;;;;;;;4.00;2.70;;;13.30;99.90;;;;;;4224068;28;20028;-69
2022/06/06 02:41:10;;;;;;;4.60;2.63;;;13.20;99.90;;;;;;4226091;27;20039;-64
2022/06/06 02:43:13;;;;;;;7.83;2.93;;;13.30;99.90;;;;;;4234038;27;20084;-65
2022/06/06 02:45:16;;;;;;;4.33;3.00;;;13.40;99.90;;;;;;4229668;27;20089;-66
2022/06/06 02:47:17;;;;;;;4.33;2.97;;;13.60;99.90;;;;;;4224138;27;20040;-66
2022/06/06 02:49:18;;;;;;;7.10;2.93;;;13.80;99.90;;;;;;4224509;27;20081;-66
2022/06/06 02:51:19;;;;;;;5.47;2.70;;;14.10;99.90;;;;;;4224787;28;20483;-66
2022/06/06 02:53:20;;;;;;;6.63;3.50;;;14.30;99.90;;;;;;4231997;27;20092;-64
2022/06/06 02:55:21;;;;;;;4.50;2.50;;;14.60;99.90;;;;;;4232628;27;20043;-68
2022/06/06 02:57:23;;;;;;;3.37;2.60;;;15.00;99.90;;;;;;4221503;28;20096;-64
2022/06/06 02:59:25;;;;;;;10.77;3.70;;;15.10;99.90;;;;;;4225159;27;20097;-67
2022/06/06 03:01:26;;;;;;;5.00;2.80;;;15.20;99.90;;;;;;4223602;28;20061;-65
2022/06/06 03:03:28;;;;;;;4.50;3.08;;;15.40;99.90;;;;;;4225737;27;20031;-66
2022/06/06 03:05:37;;;;;;;3.63;2.40;;;15.60;99.90;;;;;;4230351;27;20027;-64
2022/06/06 03:07:58;;;;;;;4.20;2.80;;;16.10;99.90;;;;;;4240969;27;20432;-64
2022/06/06 03:10:30;;;;;;;2.50;2.30;;;16.40;99.90;;;;;;4238306;27;20046;-67
2022/06/06 03:12:43;;;;;;;3.00;2.80;;;16.70;99.90;;;;;;4239807;27;20035;-65
2022/06/06 03:15:05;;;;;;;3.30;2.35;;;17.00;99.90;;;;;;4240047;27;20100;-68
2022/06/06 03:20:46;;;;;;;6.90;2.50;;;17.60;99.90;;;;;;4240831;27;20031;-66
2022/06/06 03:23:29;;;;;;;4.78;3.20;;;18.20;99.90;;;;;;4238102;27;20141;-66
2022/06/06 03:25:36;;;;;;;3.88;2.20;;;18.70;99.90;;;;;;4204473;28;20070;-65
2022/06/06 03:27:50;;;;;;;7.10;2.50;;;19.00;99.90;;;;;;4223535;27;20076;-66
2022/06/06 03:29:57;;;;;;;5.30;2.30;;;19.50;99.90;;;;;;4218734;28;20195;-65
2022/06/06 03:32:08;;;;;;;5.47;2.35;;;19.90;99.90;;;;;;4232913;27;20123;-64
2022/06/06 03:34:26;;;;;;;4.00;2.30;;;20.20;99.90;;;;;;4225972;28;20538;-64
2022/06/06 03:36:38;;;;;;;3.70;2.15;;;20.60;99.90;;;;;;4222801;28;20430;-65
2022/06/06 03:38:46;;;;;;;3.72;2.45;;;21.00;99.90;;;;;;4220803;28;20043;-66
2022/06/06 03:40:52;;;;;;;3.38;2.28;;;21.20;99.90;;;;;;4222666;28;20043;-66
2022/06/06 03:43:25;;;;;;;9.15;2.38;;;21.40;99.90;;;;;;4224387;28;20069;-65
2022/06/06 03:45:42;;;;;;;6.47;2.70;;;21.40;99.90;;;;;;4222530;28;20164;-63
2022/06/06 03:47:55;;;;;;;4.00;2.15;;;21.40;99.90;;;;;;4206900;28;20044;-63
2022/06/06 03:50:13;;;;;;;3.92;2.45;;;21.80;99.90;;;;;;4206714;27;20036;-62
2022/06/06 03:52:27;;;;;;;4.30;2.17;;;22.20;99.90;;;;;;4220668;27;20554;-63
2022/06/06 03:54:40;;;;;;;2.13;2.03;;;22.10;99.90;;;;;;4239679;27;20023;-63
2022/06/06 03:56:55;;;;;;;4.40;2.78;;;22.40;99.90;;;;;;4234297;27;20023;-64
2022/06/06 03:58:57;;;;;;;2.33;2.13;;;22.80;99.90;;;;;;4223584;28;20040;-64
2022/06/06 04:01:04;;;;;;;2.83;1.85;;;23.10;99.90;;;;;;4222998;28;20081;-63
2022/06/06 04:03:06;;;;;;;1.90;1.80;;;23.10;99.90;;;;;;4222766;28;20092;-63
2022/06/06 04:05:14;;;;;;;6.05;2.17;;;23.50;99.90;;;;;;4223052;28;20061;-63
2022/06/06 04:07:15;;;;;;;2.65;1.63;;;23.90;99.90;;;;;;4222882;28;20069;-65
2022/06/06 04:09:16;;;;;;;2.80;1.60;;;24.20;99.90;;;;;;4223902;28;20080;-63
2022/06/06 04:11:29;;;;;;;2.50;2.20;;;24.30;99.90;;;;;;4222899;28;20043;-65
2022/06/06 04:13:39;;;;;;;5.53;2.05;;;24.50;98.20;;;;;;4227288;28;20547;-65
2022/06/06 04:16:06;;;;;;;2.30;1.95;;;24.60;98.80;;;;;;4237109;28;20035;-64
2022/06/06 04:18:37;;;;;;;3.45;1.70;;;;;;;;;;4222783;28;20036;-63
2022/06/06 04:20:48;;;;;;;2.47;2.05;;;;;;;;;;4186365;28;20110;-62
2022/06/06 04:23:17;;;;;;;3.42;1.88;;;25.00;97.50;;;;;;4231024;28;20061;-66
2022/06/06 04:25:37;;;;;;;3.75;2.72;;;26.20;94.30;;;;;;4240706;27;20027;-64
2022/06/06 04:27:52;;;;;;;2.88;2.58;;;26.30;94.30;;;;;;4239969;27;20035;-63
2022/06/06 04:29:56;;;;;;;4.32;2.00;;;26.40;95.00;;;;;;4243132;27;20035;-63
2022/06/06 04:32:21;;;;;;;5.40;2.65;;;26.20;95.20;;;;;;4242333;27;20023;-63
2022/06/06 04:34:23;;;;;;;5.72;2.75;;;;;;;;;;4243385;27;20091;-66
2022/06/06 04:36:36;;;;;;;4.50;2.15;;;;;;;;;;4242218;27;20471;-66
2022/06/06 04:38:38;;;;;;;2.90;1.70;;;;;;;;;;4244068;27;20038;-63
2022/06/06 04:40:48;;;;;;;2.50;2.30;;;;;;;;;;4242692;27;20080;-64
2022/06/06 04:43:03;;;;;;;6.82;2.28;;;;;;;;;;4243899;27;20043;-64
2022/06/06 04:45:45;;;;;;;6.70;2.47;;;26.30;94.60;;;;;;4241111;27;20051;-66
2022/06/06 04:47:48;;;;;;;5.75;2.30;;;27.10;91.60;;;;;;4168115;28;20049;-65
2022/06/06 04:49:51;;;;;;;5.03;2.40;;;26.30;92.60;;;;;;4238835;27;20039;-64
2022/06/06 04:51:54;;;;;;;5.35;2.42;;;25.90;93.00;;;;;;4242942;27;20031;-66
2022/06/06 04:53:57;;;;;;;3.20;2.05;;;25.90;93.00;;;;;;4242087;27;20031;-65
2022/06/06 04:56:00;;;;;;;4.50;2.05;;;26.00;92.90;;;;;;4243185;27;20076;-65
2022/06/06 04:58:04;;;;;;;1.95;1.35;;;26.30;92.70;;;;;;4224843;28;20027;-67
2022/06/06 05:00:06;;;;;;;2.03;1.50;;;26.40;92.10;;;;;;4227443;27;20039;-65
2022/06/06 05:02:08;;;;;;;2.42;0.98;;;26.40;91.80;;;;;;4224729;28;20555;-65
2022/06/06 05:04:09;;;;;;;2.03;1.20;;;25.80;91.60;;;;;;4231497;27;20027;-65
2022/06/06 05:06:23;;;;;;;2.90;1.35;;;25.40;91.90;;;;;;4223870;27;20024;-61
2022/06/06 05:08:48;;;;;;;3.08;1.25;;;25.00;91.70;;;;;;4208802;28;20049;-62
2022/06/06 05:10:50;;;;;;;6.15;1.55;;;25.70;91.80;;;;;;4208357;28;20028;-62
2022/06/06 05:13:15;;;;;;;3.50;1.70;;;25.70;91.50;;;;;;4209451;28;20044;-64
2022/06/06 05:15:42;;;;;;;5.43;1.67;;;25.50;91.10;;;;;;4207259;28;20036;-62
2022/06/06 05:17:43;;;;;;;4.22;1.50;;;26.20;90.30;;;;;;4208901;28;20028;-63
2022/06/06 05:19:53;;;;;;;1.50;0.90;;;26.00;90.90;;;;;;4208320;28;20061;-63
2022/06/06 05:21:54;;;;;;;5.10;1.00;;;25.90;90.90;;;;;;4209132;28;20027;-65
2022/06/06 05:24:11;;;;;;;1.80;1.10;;;25.70;91.00;;;;;;4207556;28;20890;-65
2022/06/06 05:26:30;;;;;;;1.15;0.80;;;25.70;90.50;;;;;;4208885;28;20055;-67
2022/06/06 05:28:50;;;;;;;2.50;0.93;;;25.50;90.30;;;;;;4207700;28;20862;-65
2022/06/06 05:31:16;;;;;;;1.27;0.88;;;25.30;90.40;;;;;;4208832;28;20040;-64
2022/06/06 05:33:22;;;;;;;5.32;0.90;;;25.50;90.30;;;;;;4207536;28;20032;-65
2022/06/06 05:35:38;;;;;;;5.13;1.00;;;25.80;90.60;;;;;;4208852;28;20036;-64
2022/06/06 05:37:59;;;;;;;3.63;1.55;;;;;;;;;;4207661;28;20112;-63
2022/06/06 05:40:21;;;;;;;0.85;0.52;;;26.20;90.20;;;;;;4207565;28;20036;-63
2022/06/06 05:42:58;;;;;;;3.58;1.17;;;26.60;88.50;;;;;;4208306;28;20734;-65
2022/06/06 05:45:26;;;;;;;4.55;1.08;;;25.80;89.20;;;;;;4199083;28;20036;-64
2022/06/06 05:48:04;;;;;;;4.88;1.00;;;25.30;90.10;;;;;;4208450;28;20037;-65
2022/06/06 05:50:30;;;;;;;11.18;1.33;;;25.30;90.10;;;;;;4207559;28;20113;-64
2022/06/06 05:52:43;;;;;;;5.47;0.98;;;;;;;;;;4209000;28;20479;-63
2022/06/06 05:54:55;;;;;;;5.55;1.00;;;;;;;;;;4207308;28;20028;-63
2022/06/06 05:57:15;;;;;;;1.38;0.90;;;;;;;;;;4209052;28;20032;-63
2022/06/06 05:59:38;;;;;;;5.05;0.82;;;;;;;;;;4207414;28;20103;-63
2022/06/06 06:02:06;;;;;;;4.43;1.00;;;26.00;90.40;;;;;;4208232;28;20028;-63
2022/06/06 06:04:16;;;;;;;0.90;0.70;;;27.20;87.40;;;;;;4207603;28;20020;-64
2022/06/06 06:06:42;;;;;;;4.18;1.00;;;26.70;89.00;;;;;;4208132;28;20077;-65
2022/06/06 06:08:58;;;;;;;1.38;0.60;;;26.70;88.60;;;;;;4206198;28;20094;-66
2022/06/06 06:11:14;;;;;;;5.57;0.80;;;26.20;89.10;;;;;;4207535;28;20112;-65
2022/06/06 06:13:43;;;;;;;0.70;0.70;;;25.60;89.90;;;;;;4207866;28;20044;-65
2022/06/06 06:15:45;;;;;;;6.82;0.90;;;25.30;90.60;;;;;;4207274;28;20036;-66
2022/06/06 06:17:52;;;;;;;2.45;1.00;;;25.00;90.80;;;;;;4208560;28;20077;-64
2022/06/06 06:20:00;;;;;;;4.85;0.95;;;24.40;91.40;;;;;;4207005;28;20512;-64
2022/06/06 06:22:03;;;;;;;3.05;0.90;;;24.20;91.80;;;;;;4207881;28;20471;-64
2022/06/06 06:24:11;;;;;;;9.30;1.70;;;24.70;91.70;;;;;;4207199;28;20028;-62
2022/06/06 06:26:14;;;;;;;5.78;0.80;;;24.90;91.30;;;;;;4207867;28;20558;-65
2022/06/06 06:28:16;;;;;;;1.52;0.70;;;25.00;91.30;;;;;;4206823;28;20085;-66
2022/06/06 06:30:18;;;;;;;3.63;1.15;;;24.60;91.50;;;;;;4207695;28;20565;-64
2022/06/06 06:32:50;;;;;;;5.00;1.05;;;24.30;91.90;;;;;;4207454;28;20515;-64
2022/06/06 06:35:00;;;;;;;2.10;0.93;;;24.30;92.30;;;;;;4207707;28;20044;-64
2022/06/06 06:37:14;;;;;;;5.03;0.95;;;24.20;92.30;;;;;;4206800;28;20468;-62
2022/06/06 06:39:46;;;;;;;5.95;1.02;;;23.90;92.60;;;;;;4207733;28;20043;-64
2022/06/06 06:42:23;;;;;;;3.08;1.08;;;23.80;93.20;;;;;;4206536;28;20040;-63
2022/06/06 06:44:37;;;;;;;3.53;0.90;;;24.30;93.50;;;;;;4189163;28;20496;-64
2022/06/06 06:46:46;;;;;;;5.10;1.35;;;24.90;92.30;;;;;;4206747;28;20044;-64
2022/06/06 06:48:51;;;;;;;6.88;1.98;;;24.50;92.30;;;;;;4206590;28;20044;-63
2022/06/06 06:51:33;;;;;;;3.30;1.67;;;23.40;93.30;;;;;;4205943;28;20048;-64
2022/06/06 06:53:56;;;;;;;2.00;1.58;;;23.00;94.10;;;;;;4207395;28;20110;-63
2022/06/06 06:56:10;;;;;;;3.78;1.50;;;22.40;94.30;;;;;;4206250;28;20032;-63
2022/06/06 06:58:24;;;;;;;0.80;0.35;;;22.20;94.60;;;;;;4206890;28;20027;-63
2022/06/06 07:00:29;;;;;;;2.40;0.43;;;22.40;94.40;;;;;;4206837;28;20063;-64
2022/06/06 07:08:37;;;;;;;3.58;0.20;;;22.00;94.00;;;;;;4206140;28;20445;-64
2022/06/06 07:11:09;;;;;;;1.30;0.28;;;22.00;94.20;;;;;;4207609;28;20493;-64
2022/06/06 07:13:19;;;;;;;0.52;0.25;;;21.90;94.50;;;;;;4206572;28;20039;-64
2022/06/06 07:16:04;;;;;;;0.45;0.20;;;21.80;94.60;;;;;;4206647;28;20036;-63
2022/06/06 07:18:08;;;;;;;0.63;0.32;;;21.90;94.60;;;;;;4187674;28;20086;-62
2022/06/06 07:20:12;;;;;;;0.50;0.20;;;22.10;94.40;;;;;;4197937;28;20024;-63
2022/06/06 07:22:16;;;;;;;2.20;0.25;;;22.30;94.20;;;;;;4207119;28;20048;-63
2022/06/06 07:24:21;;;;;;;0.28;0.22;;;22.60;94.00;;;;;;4205004;28;20444;-63
2022/06/06 07:26:24;;;;;;;0.52;0.25;;;22.80;93.80;;;;;;4206465;28;20422;-64
2022/06/06 07:28:25;;;;;;;0.90;0.30;;;22.60;93.80;;;;;;4207110;28;20027;-63
2022/06/06 07:30:34;;;;;;;0.30;0.20;;;22.50;94.00;;;;;;4205809;28;20043;-63
2022/06/06 07:32:44;;;;;;;0.35;0.30;;;22.30;94.20;;;;;;4206241;28;20104;-63
2022/06/06 07:35:06;;;;;;;0.47;0.20;;;22.10;94.40;;;;;;4205850;28;20826;-63
2022/06/06 07:37:48;;;;;;;0.73;0.30;;;22.20;95.30;;;;;;4206359;28;20112;-63
2022/06/06 07:40:13;;;;;;;0.45;0.35;;;22.40;94.70;;;;;;4206396;28;20051;-63
2022/06/06 07:42:32;;;;;;;0.32;0.32;;;22.20;95.10;;;;;;4206348;28;20093;-63
2022/06/06 07:45:01;;;;;;;1.45;0.40;;;22.20;95.00;;;;;;4207180;28;20475;-63
2022/06/06 07:47:06;;;;;;;4.75;0.45;;;22.20;95.20;;;;;;4206187;28;20092;-63
2022/06/06 07:49:46;;;;;;;0.30;0.30;;;22.20;95.10;;;;;;4206366;28;20117;-63
2022/06/06 07:52:11;;;;;;;2.53;0.40;;;22.10;95.10;;;;;;4205634;28;20338;-63
2022/06/06 07:54:25;;;;;;;0.82;0.38;;;22.10;95.40;;;;;;4206959;28;20032;-63
2022/06/06 07:56:46;;;;;;;0.30;0.30;;;22.10;95.50;;;;;;4206111;28;20082;-62
2022/06/06 07:58:50;;;;;;;3.88;0.50;;;22.50;95.60;;;;;;4206482;28;20019;-63
2022/06/06 08:01:19;;;;;;;3.05;0.50;;;22.60;95.40;;;;;;4206191;28;20048;-63
2022/06/06 08:03:39;;;;;;;0.93;0.40;;;22.60;95.40;;;;;;4205471;28;20438;-63
2022/06/06 08:06:12;;;;;;;0.88;0.40;;;22.70;95.80;;;;;;4206074;28;20032;-64
2022/06/06 08:08:50;;;;;;;5.55;0.38;;;23.00;95.20;;;;;;4204198;28;20100;-64
2022/06/06 08:10:52;;;;;;;1.45;0.40;;;22.80;94.80;;;;;;4206737;28;20028;-64
2022/06/06 08:13:21;;;;;;;0.93;0.40;;;22.70;95.20;;;;;;4206037;28;20040;-64
2022/06/06 08:15:43;;;;;;;0.68;0.60;;;22.60;95.40;;;;;;4205345;28;20044;-66
2022/06/06 08:17:47;;;;;;;0.40;0.30;;;22.60;95.30;;;;;;4204389;28;20090;-64
2022/06/06 08:20:09;;;;;;;0.95;0.43;;;22.60;95.70;;;;;;4205265;28;20024;-63
2022/06/06 08:22:10;;;;;;;1.55;0.60;;;22.80;95.20;;;;;;4203894;28;20884;-64
2022/06/06 08:24:22;;;;;;;0.85;0.43;;;23.00;95.10;;;;;;4205201;28;20036;-65
2022/06/06 08:26:27;;;;;;;3.30;0.40;;;22.90;94.80;;;;;;4203821;28;20036;-64
2022/06/06 08:28:30;;;;;;;0.25;0.25;;;22.80;95.20;;;;;;4205929;28;20077;-63
2022/06/06 08:30:35;;;;;;;4.43;0.50;;;22.80;94.80;;;;;;4205149;28;20028;-63
2022/06/06 08:32:36;;;;;;;2.15;0.50;;;22.80;95.20;;;;;;4206494;28;20036;-63
2022/06/06 08:34:38;;;;;;;0.75;0.40;;;22.70;94.90;;;;;;4207896;28;20024;-63
2022/06/06 08:37:05;;;;;;;3.83;0.60;;;22.70;95.00;;;;;;4207113;28;20036;-64
2022/06/06 08:39:12;;;;;;;2.45;0.52;;;22.70;94.90;;;;;;4206607;28;20065;-63
2022/06/06 08:41:43;;;;;;;1.98;0.50;;;22.70;94.90;;;;;;4206285;28;20425;-66
2022/06/06 08:43:44;;;;;;;2.53;0.30;;;22.70;95.30;;;;;;4204884;28;20499;-65
2022/06/06 08:46:07;;;;;;;0.68;0.68;;;22.90;95.20;;;;;;4206353;28;20369;-65
2022/06/06 08:48:17;;;;;;;0.40;0.28;;;23.20;95.40;;;;;;4204799;28;20047;-63
2022/06/06 08:50:49;;;;;;;0.30;0.30;;;23.40;94.20;;;;;;4206278;28;20052;-63
2022/06/06 08:53:08;;;;;;;0.75;0.40;;;23.40;94.00;;;;;;4205294;28;20754;-64
2022/06/06 08:57:35;;;;;;;0.57;0.50;;;23.20;94.20;;;;;;4153139;22;20140;-64
2022/06/06 08:59:58;;;;;;;1.35;0.30;;;23.30;93.50;;;;;;4139098;28;20030;-63
2022/06/06 09:02:06;;;;;;;1.08;0.40;;;23.10;93.70;;;;;;4139836;28;20050;-65
2022/06/06 09:04:43;;;;;;;1.02;0.30;;;23.20;94.30;;;;;;4139347;28;20533;-64
2022/06/06 09:06:44;;;;;;;0.98;0.40;;;23.50;94.30;;;;;;4139318;28;20121;-67
2022/06/06 09:08:51;;;;;;;0.60;0.45;;;23.70;94.00;;;;;;4139171;28;20064;-64
2022/06/06 09:11:19;;;;;;;0.95;0.30;;;23.80;93.70;;;;;;4139098;28;20038;-63
2022/06/06 09:13:41;;;;;;;2.70;0.50;;;23.90;92.90;;;;;;4139458;28;20045;-62
2022/06/06 09:16:22;;;;;;;1.65;0.32;;;24.00;93.60;;;;;;4139170;28;20065;-63
2022/06/06 09:18:26;;;;;;;;;;;24.00;93.00;;;;;;4143372;28;20038;-66
2022/06/06 09:20:29;;;;;;;1.58;0.20;;;23.90;93.50;;;;;;4141294;28;19960;-64
2022/06/06 09:22:39;;;;;;;0.50;0.38;;;24.10;93.70;;;;;;4142943;28;20366;-63
2022/06/06 09:25:18;;;;;;;0.40;0.20;;;24.10;93.30;;;;;;4141669;28;20457;-63
2022/06/06 09:27:31;;;;;;;0.60;0.20;;;23.90;93.10;;;;;;4143766;28;20041;-65
2022/06/06 09:29:54;;;;;;;0.35;0.20;;;23.90;93.70;;;;;;4141690;28;20108;-63
2022/06/06 09:32:10;;;;;;;1.35;0.30;;;24.10;93.70;;;;;;4142298;28;20080;-63
2022/06/06 09:34:34;;;;;;;2.80;0.45;;;24.00;93.00;;;;;;4141429;28;20460;-63
2022/06/06 09:36:51;;;;;;;1.00;0.38;;;23.90;93.70;;;;;;4142729;28;20042;-64
2022/06/06 09:39:09;;;;;;;0.30;0.30;;;23.90;93.00;;;;;;4141607;28;20092;-62
2022/06/06 09:41:25;;;;;;;1.00;0.90;;;23.80;93.50;;;;;;4141379;28;20139;-63
2022/06/06 09:43:50;;;;;;;4.57;0.40;;;23.70;93.70;;;;;;4142021;28;20100;-65
2022/06/06 09:46:16;;;;;;;0.55;0.35;;;23.70;93.70;;;;;;4141245;28;20041;-64
2022/06/06 09:48:42;;;;;;;5.45;0.57;;;23.60;93.80;;;;;;4142542;28;20038;-64
2022/06/06 09:51:20;;;;;;;4.22;0.30;;;23.80;93.80;;;;;;4141111;28;20026;-63
2022/06/06 09:53:37;;;;;;;2.63;0.30;;;24.00;93.40;;;;;;4142814;28;20034;-62
2022/06/06 09:59:01;;;;;;;4.53;0.30;;;24.00;92.90;;;;;;4141853;28;20486;-64
2022/06/06 10:01:08;;;;;;;1.52;0.20;;;23.90;92.90;;;;;;4142035;28;20520;-63
2022/06/06 10:03:21;;;;;;;0.32;0.32;;;23.80;92.80;;;;;;4140835;28;20477;-62
2022/06/06 10:05:58;;;;;;;1.75;0.43;;;23.70;93.00;;;;;;4142042;28;20359;-62
2022/06/06 10:08:14;;;;;;;0.57;0.30;;;23.90;92.90;;;;;;4140988;28;20022;-63
2022/06/06 10:11:00;;;;;;;1.58;0.30;;;24.00;93.00;;;;;;4142075;28;20033;-62
2022/06/06 10:13:18;;;;;;;1.50;0.40;;;24.10;93.20;;;;;;4139268;28;20135;-65
2022/06/06 10:15:38;;;;;;;0.52;0.30;;;23.70;92.50;;;;;;4141532;28;20038;-64
2022/06/06 10:18:10;;;;;;;0.35;0.30;;;23.80;93.00;;;;;;4140845;28;20077;-62
2022/06/06 10:20:23;;;;;;;0.85;0.38;;;23.90;92.20;;;;;;4141102;28;20034;-63
2022/06/06 10:22:52;;;;;;;0.40;0.40;;;24.00;92.40;;;;;;4141627;28;20034;-63
2022/06/06 10:25:11;;;;;;;0.22;0.22;;;24.10;92.20;;;;;;4140537;28;20120;-63
2022/06/06 10:27:31;;;;;;;2.25;0.35;;;24.00;92.20;;;;;;4141700;28;20042;-63
2022/06/06 10:30:10;;;;;;;1.05;0.30;;;24.00;92.20;;;;;;4140163;28;20030;-63
2022/06/06 10:32:42;;;;;;;0.38;0.20;;;23.70;92.30;;;;;;4141906;28;20026;-63
2022/06/06 10:35:13;;;;;;;0.85;0.40;;;23.70;93.00;;;;;;4141031;28;20081;-64
2022/06/06 10:37:14;;;;;;;1.08;0.40;;;23.90;93.10;;;;;;4135494;28;20042;-63
2022/06/06 10:39:29;;;;;;;1.95;0.50;;;24.10;93.40;;;;;;4140529;28;20099;-63
2022/06/06 10:41:46;;;;;;;0.85;0.47;;;24.10;92.90;;;;;;4141010;28;20053;-63
2022/06/06 10:43:59;;;;;;;0.60;0.55;;;24.00;92.90;;;;;;4140694;28;20100;-63
2022/06/06 10:46:19;;;;;;;0.98;0.40;;;24.10;92.50;;;;;;4140751;28;20045;-62
2022/06/06 10:48:41;;;;;;;0.75;0.50;;;24.20;92.70;;;;;;4141561;28;20050;-64
2022/06/06 10:53:58;;;;;;;2.50;0.50;;;24.50;91.80;;;;;;4141828;28;20042;-63
2022/06/06 10:56:10;;;;;;;1.38;0.20;;;24.50;92.20;;;;;;4140733;28;20041;-63
2022/06/06 10:58:30;;;;;;;2.10;0.45;;;24.10;91.90;;;;;;4140496;28;20432;-63
2022/06/06 11:00:43;;;;;;;2.60;0.60;;;24.00;92.40;;;;;;4140003;28;20473;-63
2022/06/06 11:03:15;;;;;;;1.33;0.45;;;23.90;92.50;;;;;;4141096;28;20414;-63
2022/06/06 11:05:47;;;;;;;1.83;0.60;;;23.80;92.30;;;;;;4140531;28;20104;-62
2022/06/06 11:08:00;;;;;;;0.77;0.60;;;23.70;92.60;;;;;;4140076;28;20022;-65
2022/06/06 11:10:15;;;;;;;1.58;0.50;;;23.90;92.50;;;;;;4140653;28;20453;-62
2022/06/06 11:12:28;;;;;;;2.40;0.40;;;23.90;92.00;;;;;;4139742;28;20100;-63
2022/06/06 11:14:40;;;;;;;4.57;0.32;;;23.80;91.30;;;;;;4140159;28;20432;-64
2022/06/06 11:16:56;;;;;;;1.52;0.30;;;23.80;90.50;;;;;;4139980;28;20018;-63
2022/06/06 11:19:09;;;;;;;1.40;0.40;;;23.80;91.00;;;;;;4140708;28;20038;-64
2022/06/06 11:21:31;;;;;;;1.30;0.40;;;23.90;91.30;;;;;;4139719;28;20034;-62
2022/06/06 11:23:46;;;;;;;0.30;0.30;;;24.20;91.10;;;;;;4141349;28;20039;-63
2022/06/06 11:26:09;;;;;;;0.88;0.40;;;24.30;90.40;;;;;;4139794;28;20045;-64
2022/06/06 11:28:42;;;;;;;1.75;0.30;;;24.20;90.40;;;;;;4172615;28;20040;-63
2022/06/06 11:31:04;;;;;;;0.22;0.20;;;24.20;90.60;;;;;;4139611;28;20104;-64
2022/06/06 11:33:11;;;;;;;1.50;0.43;;;24.20;90.70;;;;;;4140994;28;20477;-63
2022/06/06 11:35:21;;;;;;;1.40;0.32;;;24.10;90.40;;;;;;4139942;28;20025;-63
2022/06/06 11:37:54;;;;;;;0.40;0.40;;;24.20;90.70;;;;;;4140150;28;20034;-63
2022/06/06 11:40:35;;;;;;;4.50;0.70;;;24.30;90.80;;;;;;4139288;28;20107;-63
2022/06/06 11:43:12;;;;;;;0.50;0.50;;;24.40;90.20;;;;;;4171019;28;20029;-63
2022/06/06 11:45:34;;;;;;;1.25;0.50;;;24.50;90.40;;;;;;4140868;28;20061;-63
2022/06/06 11:47:44;;;;;;;1.88;0.40;;;24.50;89.70;;;;;;4139548;28;20030;-68
2022/06/06 11:50:11;;;;;;;0.75;0.45;;;24.50;89.90;;;;;;4140369;28;20111;-65
2022/06/06 11:52:34;;;;;;;0.57;0.50;;;24.60;89.50;;;;;;4139184;28;20022;-63
2022/06/06 11:55:14;;;;;;;1.02;0.35;;;24.60;90.00;;;;;;4140495;28;20034;-64
2022/06/06 11:57:24;;;;;;;;;;;24.60;89.00;;;;;;4140208;28;20107;-63
2022/06/06 11:59:34;;;;;;;0.60;0.50;;;24.70;89.20;;;;;;4140745;28;19940;-67